<?xml version="1.0" encoding="UTF-8" standalone="no" ?>
<gpx xmlns="http://www.topografix.com/GPX/1/1" xmlns:xsi="http://www.w3.org/2001/XMLSchema-instance" xsi:schemaLocation="http://www.topografix.com/GPX/1/1 http://www.topografix.com/GPX/1/1/gpx.xsd" version="1.1" creator="VisuGPX - https://www.visugpx.com">
  <metadata>
    <name>Nouveau 6km-Tour duFlorac </name>
  </metadata>
  <trk>
    <name><![CDATA[11453367-nouveau 6km]]></name>
    <trkseg>
      <trkpt lat="45.3062" lon="2.82736">
        <ele>1066</ele>
        <time>2020-06-09T19:58:07Z</time>
      </trkpt>
      <trkpt lat="45.3056" lon="2.82801">
        <ele>1068</ele>
        <time>2020-06-09T19:58:45Z</time>
      </trkpt>
      <trkpt lat="45.30498" lon="2.82823">
        <ele>1071</ele>
        <time>2020-06-09T19:59:17Z</time>
      </trkpt>
      <trkpt lat="45.30501" lon="2.82897">
        <ele>1071</ele>
        <time>2020-06-09T19:59:43Z</time>
      </trkpt>
      <trkpt lat="45.30484" lon="2.82947">
        <ele>1072</ele>
        <time>2020-06-09T20:00:02Z</time>
      </trkpt>
      <trkpt lat="45.30499" lon="2.82976">
        <ele>1072</ele>
        <time>2020-06-09T20:00:15Z</time>
      </trkpt>
      <trkpt lat="45.30518" lon="2.82949">
        <ele>1071</ele>
        <time>2020-06-09T20:00:28Z</time>
      </trkpt>
      <trkpt lat="45.3066" lon="2.83068">
        <ele>1066</ele>
        <time>2020-06-09T20:01:51Z</time>
      </trkpt>
      <trkpt lat="45.30664" lon="2.8313">
        <ele>1064</ele>
        <time>2020-06-09T20:02:13Z</time>
      </trkpt>
      <trkpt lat="45.30703" lon="2.83229">
        <ele>1065</ele>
        <time>2020-06-09T20:02:53Z</time>
      </trkpt>
      <trkpt lat="45.30705" lon="2.83273">
        <ele>1066</ele>
        <time>2020-06-09T20:03:08Z</time>
      </trkpt>
      <trkpt lat="45.30685" lon="2.83361">
        <ele>1070</ele>
        <time>2020-06-09T20:03:41Z</time>
      </trkpt>
      <trkpt lat="45.30647" lon="2.83453">
        <ele>1074</ele>
        <time>2020-06-09T20:04:18Z</time>
      </trkpt>
      <trkpt lat="45.30619" lon="2.83546">
        <ele>1076</ele>
        <time>2020-06-09T20:04:54Z</time>
      </trkpt>
      <trkpt lat="45.30572" lon="2.8361">
        <ele>1081</ele>
        <time>2020-06-09T20:05:27Z</time>
      </trkpt>
      <trkpt lat="45.30589" lon="2.83698">
        <ele>1087</ele>
        <time>2020-06-09T20:05:59Z</time>
      </trkpt>
      <trkpt lat="45.30583" lon="2.83784">
        <ele>1094</ele>
        <time>2020-06-09T20:06:29Z</time>
      </trkpt>
      <trkpt lat="45.30585" lon="2.83849">
        <ele>1098</ele>
        <time>2020-06-09T20:06:52Z</time>
      </trkpt>
      <trkpt lat="45.30576" lon="2.83916">
        <ele>1106</ele>
        <time>2020-06-09T20:07:16Z</time>
      </trkpt>
      <trkpt lat="45.3052" lon="2.84034">
        <ele>1123</ele>
        <time>2020-06-09T20:08:06Z</time>
      </trkpt>
      <trkpt lat="45.30444" lon="2.84103">
        <ele>1127</ele>
        <time>2020-06-09T20:08:51Z</time>
      </trkpt>
      <trkpt lat="45.30375" lon="2.84154">
        <ele>1127</ele>
        <time>2020-06-09T20:09:30Z</time>
      </trkpt>
      <trkpt lat="45.30301" lon="2.8421">
        <ele>1125</ele>
        <time>2020-06-09T20:10:12Z</time>
      </trkpt>
      <trkpt lat="45.30204" lon="2.8432">
        <ele>1121</ele>
        <time>2020-06-09T20:11:14Z</time>
      </trkpt>
      <trkpt lat="45.30106" lon="2.84384">
        <ele>1120</ele>
        <time>2020-06-09T20:12:08Z</time>
      </trkpt>
      <trkpt lat="45.30022" lon="2.84491">
        <ele>1126</ele>
        <time>2020-06-09T20:13:05Z</time>
      </trkpt>
      <trkpt lat="45.29971" lon="2.84583">
        <ele>1132</ele>
        <time>2020-06-09T20:13:46Z</time>
      </trkpt>
      <trkpt lat="45.29951" lon="2.84695">
        <ele>1138</ele>
        <time>2020-06-09T20:14:27Z</time>
      </trkpt>
      <trkpt lat="45.29931" lon="2.84796">
        <ele>1144</ele>
        <time>2020-06-09T20:15:03Z</time>
      </trkpt>
      <trkpt lat="45.299" lon="2.84933">
        <ele>1145</ele>
        <time>2020-06-09T20:15:54Z</time>
      </trkpt>
      <trkpt lat="45.29975" lon="2.84929">
        <ele>1157</ele>
        <time>2020-06-09T20:16:32Z</time>
      </trkpt>
      <trkpt lat="45.3007" lon="2.84963">
        <ele>1166</ele>
        <time>2020-06-09T20:17:21Z</time>
      </trkpt>
      <trkpt lat="45.30155" lon="2.84976">
        <ele>1173</ele>
        <time>2020-06-09T20:18:03Z</time>
      </trkpt>
      <trkpt lat="45.30244" lon="2.85004">
        <ele>1174</ele>
        <time>2020-06-09T20:18:49Z</time>
      </trkpt>
      <trkpt lat="45.3033" lon="2.8503">
        <ele>1174</ele>
        <time>2020-06-09T20:19:33Z</time>
      </trkpt>
      <trkpt lat="45.30455" lon="2.85023">
        <ele>1173</ele>
        <time>2020-06-09T20:20:36Z</time>
      </trkpt>
      <trkpt lat="45.30535" lon="2.85006">
        <ele>1170</ele>
        <time>2020-06-09T20:21:16Z</time>
      </trkpt>
      <trkpt lat="45.30627" lon="2.84972">
        <ele>1163</ele>
        <time>2020-06-09T20:22:04Z</time>
      </trkpt>
      <trkpt lat="45.30651" lon="2.84777">
        <ele>1168</ele>
        <time>2020-06-09T20:23:13Z</time>
      </trkpt>
      <trkpt lat="45.30687" lon="2.84684">
        <ele>1166</ele>
        <time>2020-06-09T20:23:51Z</time>
      </trkpt>
      <trkpt lat="45.30719" lon="2.84592">
        <ele>1160</ele>
        <time>2020-06-09T20:24:27Z</time>
      </trkpt>
      <trkpt lat="45.30731" lon="2.84468">
        <ele>1155</ele>
        <time>2020-06-09T20:25:11Z</time>
      </trkpt>
      <trkpt lat="45.30749" lon="2.84294">
        <ele>1143</ele>
        <time>2020-06-09T20:26:13Z</time>
      </trkpt>
      <trkpt lat="45.30724" lon="2.84152">
        <ele>1131</ele>
        <time>2020-06-09T20:27:04Z</time>
      </trkpt>
      <trkpt lat="45.30666" lon="2.84028">
        <ele>1122</ele>
        <time>2020-06-09T20:27:57Z</time>
      </trkpt>
      <trkpt lat="45.30621" lon="2.83944">
        <ele>1110</ele>
        <time>2020-06-09T20:28:34Z</time>
      </trkpt>
      <trkpt lat="45.30593" lon="2.83879">
        <ele>1101</ele>
        <time>2020-06-09T20:29:01Z</time>
      </trkpt>
      <trkpt lat="45.30595" lon="2.8373">
        <ele>1090</ele>
        <time>2020-06-09T20:29:53Z</time>
      </trkpt>
      <trkpt lat="45.30587" lon="2.83667">
        <ele>1085</ele>
        <time>2020-06-09T20:30:16Z</time>
      </trkpt>
      <trkpt lat="45.30584" lon="2.83583">
        <ele>1079</ele>
        <time>2020-06-09T20:30:45Z</time>
      </trkpt>
      <trkpt lat="45.30628" lon="2.83493">
        <ele>1074</ele>
        <time>2020-06-09T20:31:24Z</time>
      </trkpt>
      <trkpt lat="45.30665" lon="2.83401">
        <ele>1074</ele>
        <time>2020-06-09T20:32:01Z</time>
      </trkpt>
      <trkpt lat="45.30697" lon="2.8332">
        <ele>1067</ele>
        <time>2020-06-09T20:32:34Z</time>
      </trkpt>
      <trkpt lat="45.307" lon="2.83198">
        <ele>1064</ele>
        <time>2020-06-09T20:33:17Z</time>
      </trkpt>
      <trkpt lat="45.30678" lon="2.83142">
        <ele>1063</ele>
        <time>2020-06-09T20:33:39Z</time>
      </trkpt>
      <trkpt lat="45.30666" lon="2.83096">
        <ele>1065</ele>
        <time>2020-06-09T20:33:57Z</time>
      </trkpt>
      <trkpt lat="45.30608" lon="2.83018">
        <ele>1068</ele>
        <time>2020-06-09T20:34:37Z</time>
      </trkpt>
      <trkpt lat="45.30541" lon="2.82959">
        <ele>1070</ele>
        <time>2020-06-09T20:35:16Z</time>
      </trkpt>
      <trkpt lat="45.30497" lon="2.82927">
        <ele>1071</ele>
        <time>2020-06-09T20:35:41Z</time>
      </trkpt>
      <trkpt lat="45.30499" lon="2.82809">
        <ele>1071</ele>
        <time>2020-06-09T20:36:22Z</time>
      </trkpt>
      <trkpt lat="45.30614" lon="2.82726">
        <ele>1066</ele>
        <time>2020-06-09T20:37:27Z</time>
      </trkpt>
    </trkseg>
  </trk>
</gpx>